Pagrindinis puslapis
METAR-TAF:

METAR-TAF

Oro uostai :

Odensė, Danija

platuma: 55-29N, ilguma: 010-20E, Aukštis: 17 m

Dabartinis oras

Ataskaita buvo paskelbta 3 valandos ir 8 minutes, ne 19:50 UTC
Vėjas 6 kt iš Pietų/Pietryčių
Temperatūra 12°C
Drėgmė 100%
Slėgis 1008 hPa
Matomumas 10 km arba daugiau
Mažai debesys ne aukštis 4000 ft
Išsisklaidę debesys ne aukštis 6500 ft
Su prošvaistėmis ne aukštis 8500 ft

METAR: EKOD 161950Z 15006KT 9999 FEW040 SCT065 BKN085 12/12 Q1008

Laikas: 00:58 (22:58 UTC)

Prognozė

Ataskaita buvo paskelbta 4 valandos ir 24 minutes, ne 18:34 UTC
Prognozė galioja nuo 16 metu 18 UTC su 16 metu 22 UTC
Vėjas 10 kt iš Pietų/Pietvakarių
Matomumas 10 km arba daugiau
Mažai debesys ne aukštis 4000 ft
Laikinai
nuo 16 metu 18 UTC su 16 metu 22 UTC
Išsisklaidę debesys ne aukštis 2000 ft, Liūtiniai kamuoliniai debesys.
lietus,

TAF: EKOD 161834Z 1618/1622 20010KT 9999 FEW040 TEMPO 1618/1622 SHRA SCT020CB

Orai ataskaitas ir orų prognozės (METAR, TAF).

turimą stotys yra geltonos ir raudonos taškus žemėlapyje.

Perkelti pele per norėdami pamatyti stoties vardą.

Tada spustelėkite, norėdami matyti oro stebėjimo ir prognozės.

Norėdami pakeisti žemėlapį: spustelėkite ant žalios mygtukų su juodo kryžiaus žemyn,; žalią mygtuką su brūkšneliu, jei norite nutolinti; arba žalių rodyklių gretimoms žemėlapius.


METAR-TAF: